Time;durP1;ratioP1;P1;durP2;ratioP2;P2;SDS_P1;SDS_P2;PMS_P1;PMS_P2;Temp;Humidity;BMP_temperature;BMP_pressure;BME280_temperature;BME280_humidity;BME280_pressure;Samples;Min_cycle;Max_cycle;Signal;HPM_P1;HPM_P2
2022/05/18 00:00:17;;;;;;;3.47;1.50;;;;;;;5.28;100.00;99754.59;4447281;32;20030;-77
2022/05/18 00:03:09;;;;;;;2.85;1.30;;;;;;;5.35;100.00;99760.81;4460764;32;20041;-76
2022/05/18 00:05:39;;;;;;;3.17;1.37;;;;;;;5.08;100.00;99727.78;4461815;32;20438;-76
2022/05/18 00:08:07;;;;;;;1.48;1.35;;;;;;;5.01;100.00;99733.09;4463775;32;20042;-76
2022/05/18 00:10:36;;;;;;;5.75;1.50;;;;;;;5.23;100.00;99773.03;4460904;32;20106;-76
2022/05/18 00:13:03;;;;;;;1.45;1.20;;;;;;;5.23;100.00;99773.03;4446786;32;20034;-76
2022/05/18 00:15:31;;;;;;;1.48;1.15;;;;;;;5.16;100.00;99777.53;4457435;32;20034;-77
2022/05/18 00:17:57;;;;;;;3.22;1.70;;;;;;;4.85;100.00;99734.22;4463556;32;20340;-77
2022/05/18 00:20:24;;;;;;;1.40;1.30;;;;;;;5.01;100.00;99765.13;4457647;32;20068;-76
2022/05/18 00:22:59;;;;;;;4.72;1.30;;;;;;;4.71;100.00;99730.62;4450143;32;20056;-76
2022/05/18 00:25:29;;;;;;;3.10;1.27;;;;;;;4.96;100.00;99783.53;4461730;32;20396;-76
2022/05/18 00:27:56;;;;;;;2.33;1.00;;;;;;;4.92;100.00;99782.31;4448770;32;20067;-76
2022/05/18 00:30:24;;;;;;;3.35;1.12;;;;;;;4.84;100.00;99779.78;4462721;32;20063;-78
2022/05/18 00:32:50;;;;;;;1.60;1.50;;;;;;;4.84;100.00;99780.59;4460859;32;20332;-75
2022/05/18 00:35:18;;;;;;;2.15;1.50;;;;;;;4.77;100.00;99784.22;4462509;32;20041;-75
2022/05/18 00:37:44;;;;;;;3.25;1.30;;;;;;;4.73;100.00;99789.13;4462681;32;20069;-75
2022/05/18 00:40:14;;;;;;;7.05;1.40;;;;;;;4.45;100.00;99749.09;4463074;32;20037;-75
2022/05/18 00:42:42;;;;;;;1.73;1.30;;;;;;;4.65;100.00;99782.09;4445770;32;20063;-76
2022/05/18 00:45:09;;;;;;;2.08;1.55;;;;;;;4.50;100.00;99784.00;4446306;32;20071;-76
2022/05/18 00:47:37;;;;;;;7.87;2.37;;;;;;;4.37;100.00;99780.22;4447320;32;20045;-76
2022/05/18 00:50:15;;;;;;;5.10;1.50;;;;;;;4.45;100.00;99797.09;4447419;32;20064;-76
2022/05/18 00:52:58;;;;;;;6.47;1.58;;;;;;;4.22;100.00;99758.13;4444114;32;20391;-78
2022/05/18 00:55:27;;;;;;;3.17;1.85;;;;;;;4.53;100.00;99815.63;4462286;32;20437;-76
2022/05/18 00:58:10;;;;;;;2.62;1.60;;;;;;;4.48;100.00;99818.87;4461128;32;20482;-76
2022/05/18 01:00:38;;;;;;;2.72;1.70;;;;;;;4.51;100.00;99817.66;4446182;32;20064;-76
2022/05/18 01:03:13;;;;;;;3.05;1.60;;;;;;;4.23;100.00;99783.75;4452770;32;20042;-77
2022/05/18 01:05:42;;;;;;;6.30;2.00;;;;;;;4.27;100.00;99798.34;4447304;32;20042;-76
2022/05/18 01:08:12;;;;;;;2.75;1.70;;;;;;;4.37;100.00;99809.53;4460715;32;20029;-78
2022/05/18 01:10:38;;;;;;;4.50;1.77;;;;;;;4.49;100.00;99841.03;4459160;32;20045;-77
2022/05/18 01:13:06;;;;;;;1.65;1.45;;;;;;;4.23;100.00;99794.44;4462753;32;20037;-76
2022/05/18 01:15:32;;;;;;;5.22;1.40;;;;;;;4.39;100.00;99825.34;4460644;32;20025;-77
2022/05/18 01:18:01;;;;;;;1.98;1.60;;;;;;;4.14;100.00;99800.88;4445690;32;20034;-78
2022/05/18 01:20:37;;;;;;;4.65;1.42;;;;;;;4.35;100.00;99834.72;4446014;32;20062;-76
2022/05/18 01:23:18;;;;;;;1.25;1.08;;;;;;;4.28;100.00;99834.66;4445981;32;20431;-77
2022/05/18 01:26:00;;;;;;;3.45;1.52;;;;;;;4.25;100.00;99840.37;4444807;32;20103;-77
2022/05/18 01:28:33;;;;;;;2.55;1.40;;;;;;;3.96;100.00;99815.44;4436341;32;20030;-76
2022/05/18 01:31:00;;;;;;;1.27;1.17;;;;;;;4.19;100.00;99847.28;4448551;32;20060;-76
2022/05/18 01:33:26;;;;;;;9.73;1.55;;;;;;;4.15;100.00;99846.00;4434766;32;20034;-76
2022/05/18 01:35:52;;;;;;;1.48;1.40;;;;;;;4.12;100.00;99856.22;4439652;32;20977;-77
2022/05/18 01:38:19;;;;;;;4.07;1.48;;;;;;;4.02;100.00;99839.69;4460146;32;20046;-76
2022/05/18 01:40:56;;;;;;;2.03;1.23;;;;;;;4.03;100.00;99841.34;4465158;32;20073;-76
2022/05/18 01:43:32;;;;;;;7.87;1.20;;;;;;;4.08;100.00;99838.94;4463500;32;20116;-77
2022/05/18 01:46:01;;;;;;;2.47;1.30;;;;;;;4.10;100.00;99844.91;4464037;32;20041;-76
2022/05/18 01:48:35;;;;;;;2.80;1.42;;;;;;;4.06;100.00;99841.81;4463818;32;20041;-76
2022/05/18 01:51:09;;;;;;;1.55;1.45;;;;;;;4.11;100.00;99849.25;4462636;32;20063;-76
2022/05/18 01:53:36;;;;;;;1.83;1.58;;;;;;;4.07;100.00;99847.94;4465334;32;20034;-76
2022/05/18 01:56:04;;;;;;;1.35;1.23;;;;;;;4.04;100.00;99848.31;4449851;32;20408;-76
2022/05/18 01:58:30;;;;;;;2.47;1.60;;;;;;;3.74;100.00;99806.56;4444129;32;20030;-78
2022/05/18 02:00:57;;;;;;;2.10;1.25;;;;;;;3.47;100.00;99765.47;4448103;32;20433;-75
2022/05/18 02:03:23;;;;;;;3.37;1.33;;;;;;;3.87;100.00;99858.38;4458709;32;20131;-76
2022/05/18 02:05:52;;;;;;;2.37;1.20;;;;;;;3.80;100.00;99851.13;4451226;32;20041;-77
2022/05/18 02:08:21;;;;;;;2.28;1.42;;;;;;;3.78;100.00;99855.81;4464680;32;20071;-78
2022/05/18 02:10:48;;;;;;;2.17;1.67;;;;;;;3.73;100.00;99860.03;4448563;32;20034;-78
2022/05/18 02:13:15;;;;;;;1.30;1.23;;;;;;;3.62;100.00;99862.16;4465253;32;20067;-78
2022/05/18 02:15:43;;;;;;;1.95;1.70;;;;;;;3.52;100.00;99853.59;4458075;32;20060;-77
2022/05/18 02:18:10;;;;;;;2.22;1.08;;;;;;;3.63;100.00;99869.13;4451615;32;20053;-76
2022/05/18 02:20:37;;;;;;;2.85;1.25;;;;;;;3.53;100.00;99860.59;4448058;32;20456;-78
2022/05/18 02:23:04;;;;;;;5.65;0.95;;;;;;;3.32;100.00;99831.19;4447793;32;20037;-76
2022/05/18 02:25:32;;;;;;;0.80;0.80;;;;;;;3.50;100.00;99868.94;4451200;32;20101;-78
2022/05/18 02:27:59;;;;;;;1.12;0.90;;;;;;;3.23;100.00;99831.28;4464890;32;20127;-76
2022/05/18 02:30:26;;;;;;;1.08;1.00;;;;;;;3.55;100.00;99866.56;4444878;32;20477;-77
2022/05/18 02:32:53;;;;;;;4.60;1.33;;;;;;;3.55;100.00;99869.22;4450265;32;20083;-76
2022/05/18 02:35:19;;;;;;;6.55;1.23;;;;;;;3.54;100.00;99870.25;4447597;32;20461;-76
2022/05/18 02:37:46;;;;;;;2.55;1.20;;;;;;;3.49;100.00;99864.63;4439121;32;20091;-75
2022/05/18 02:40:13;;;;;;;1.20;1.10;;;;;;;3.50;100.00;99882.25;4449298;32;20076;-76
2022/05/18 02:42:40;;;;;;;2.97;1.40;;;;;;;3.45;100.00;99880.16;4444862;32;20071;-76
2022/05/18 02:45:07;;;;;;;2.60;1.05;;;;;;;3.11;100.00;99830.06;4435115;32;20049;-76
2022/05/18 02:47:40;;;;;;;4.68;1.12;;;;;;;3.37;100.00;99866.09;4447093;32;20055;-77
2022/05/18 02:50:08;;;;;;;1.00;1.00;;;;;;;3.26;100.00;99856.72;4462463;32;20033;-79
2022/05/18 02:52:35;;;;;;;2.75;1.27;;;;;;;3.33;100.00;99880.78;4462567;32;20063;-75
2022/05/18 02:57:48;;;;;;;1.45;0.90;;;;;;;3.09;100.00;99837.41;4458124;32;20351;-77
2022/05/18 03:00:15;;;;;;;2.12;1.10;;;;;;;3.40;100.00;99884.38;4434402;32;20034;-77
2022/05/18 03:02:41;;;;;;;1.40;1.30;;;;;;;3.44;100.00;99883.00;4464080;32;20046;-77
2022/05/18 03:05:08;;;;;;;2.15;1.50;;;;;;;3.25;100.00;99847.06;4440774;32;20056;-77
2022/05/18 03:07:35;;;;;;;1.85;1.20;;;;;;;3.43;100.00;99894.63;4433052;32;20063;-76
2022/05/18 03:10:01;;;;;;;1.73;1.62;;;;;;;2.96;100.00;99839.88;4447328;32;20390;-80
2022/05/18 03:12:28;;;;;;;8.50;1.45;;;;;;;2.86;100.00;99846.28;4451976;32;20045;-76
2022/05/18 03:14:54;;;;;;;5.22;1.90;;;;;;;3.06;100.00;99893.66;4464475;32;20045;-77
2022/05/18 03:17:28;;;;;;;1.58;1.23;;;;;;;3.06;100.00;99888.34;4464061;32;20363;-76
2022/05/18 03:19:54;;;;;;;2.80;1.30;;;;;;;3.15;100.00;99905.88;4463705;32;20045;-78
2022/05/18 03:25:06;;;;;;;5.47;1.27;;;;;;;2.78;100.00;99859.66;4457601;32;20061;-75
2022/05/18 03:27:32;;;;;;;1.50;1.17;;;;;;;2.54;100.00;99832.22;4455138;32;20055;-75
2022/05/18 03:29:59;;;;;;;8.30;1.50;;;;;;;2.78;100.00;99870.28;4431780;32;20023;-79
2022/05/18 03:32:26;;;;;;;1.40;1.30;;;;;;;3.09;100.00;99910.13;4476726;32;20088;-77
2022/05/18 03:34:52;;;;;;;2.83;1.02;;;;;;;3.14;100.00;99906.88;4479632;32;20426;-77
2022/05/18 03:37:18;;;;;;;3.28;1.23;;;;;;;3.01;100.00;99874.75;4477510;32;20055;-77
2022/05/18 03:39:45;;;;;;;2.10;1.40;;;;;;;3.35;100.00;99916.03;4479101;32;20037;-79
2022/05/18 03:42:11;;;;;;;1.83;1.48;;;;;;;3.42;100.00;99919.63;4475823;32;20029;-76
2022/05/18 03:44:38;;;;;;;7.20;1.42;;;;;;;3.23;100.00;99887.19;4479335;32;20519;-76
2022/05/18 03:47:04;;;;;;;4.00;1.67;;;;;;;3.57;100.00;99931.09;4450658;32;20052;-77
2022/05/18 03:49:31;;;;;;;6.03;2.25;;;;;;;3.65;100.00;99932.87;4436162;32;20056;-76
2022/05/18 03:51:57;;;;;;;8.60;2.47;;;;;;;3.63;100.00;99935.72;4447905;32;20145;-77
2022/05/18 03:54:24;;;;;;;7.43;4.07;;;;;;;3.75;100.00;99945.91;4452261;32;20041;-77
2022/05/18 03:56:50;;;;;;;3.67;2.28;;;;;;;3.75;100.00;99945.91;4463417;32;20038;-76
2022/05/18 03:59:18;;;;;;;4.35;3.15;;;;;;;3.78;100.00;99945.56;4448568;32;20374;-77
2022/05/18 04:01:44;;;;;;;9.57;2.33;;;;;;;3.83;100.00;99953.84;4440710;32;20067;-79
2022/05/18 04:04:11;;;;;;;6.50;1.35;;;;;;;3.84;100.00;99950.16;4446066;32;20038;-77
2022/05/18 04:06:37;;;;;;;1.62;1.33;;;;;;;3.77;100.00;99949.25;4434163;32;20055;-76
2022/05/18 04:09:04;;;;;;;6.87;1.83;;;;;;;3.78;100.00;99964.19;4447907;32;20469;-76
2022/05/18 04:11:30;;;;;;;6.62;1.62;;;;;;;3.79;100.00;99969.34;4446815;32;20033;-76
2022/05/18 04:13:57;;;;;;;2.75;1.20;;;;;;;3.76;100.00;99974.22;4452790;32;20346;-76
2022/05/18 04:16:23;;;;;;;13.45;1.30;;;;;;;3.69;100.00;99978.63;4447933;32;20706;-76
2022/05/18 04:18:50;;;;;;;5.05;1.12;;;;;;;3.71;100.00;99981.94;4456429;32;20042;-77
2022/05/18 04:21:16;;;;;;;2.58;1.48;;;;;;;3.39;100.00;99923.47;4461254;32;20079;-76
2022/05/18 04:23:50;;;;;;;9.48;1.58;;;;;;;3.54;100.00;99944.81;4448829;32;20041;-76
2022/05/18 04:26:16;;;;;;;2.33;1.08;;;;;;;3.92;100.00;99998.03;4448684;32;20370;-76
2022/05/18 04:28:43;;;;;;;4.40;1.35;;;;;;;3.98;100.00;99983.16;4463378;32;20042;-76
2022/05/18 04:31:09;;;;;;;2.35;1.25;;;;;;;4.08;100.00;99993.53;4452651;32;20045;-77
2022/05/18 04:33:36;;;;;;;7.97;1.17;;;;;;;4.13;100.00;99986.66;4444749;32;20107;-78
2022/05/18 04:36:02;;;;;;;4.40;1.42;;;;;;;4.12;100.00;99979.66;4433582;32;20046;-75
2022/05/18 04:38:29;;;;;;;2.75;1.05;;;;;;;3.99;100.00;99952.84;4446186;32;20059;-76
2022/05/18 04:40:56;;;;;;;1.10;1.10;;;;;;;4.07;100.00;99960.72;4437618;32;20102;-77
2022/05/18 04:43:23;;;;;;;1.58;1.48;;;;;;;4.38;100.00;100005.00;4447997;32;20038;-80
2022/05/18 04:45:51;;;;;;;3.47;1.40;;;;;;;4.35;100.00;99982.19;4445788;32;20058;-77
2022/05/18 04:48:19;;;;;;;2.28;0.90;;;;;;;4.58;100.00;100009.75;4435398;32;20037;-76
2022/05/18 04:50:47;;;;;;;1.08;0.98;;;;;;;4.66;100.00;100017.66;4461739;32;20102;-77
2022/05/18 04:53:15;;;;;;;2.22;0.88;;;;;;;4.70;100.00;100017.09;4448980;32;20059;-77
2022/05/18 04:55:42;;;;;;;4.93;1.05;;;;;;;4.78;100.00;100020.69;4443805;32;20042;-78
2022/05/18 04:58:08;;;;;;;1.00;0.90;;;;;;;4.55;100.00;99973.62;4447613;32;20042;-77
2022/05/18 05:00:37;;;;;;;4.32;1.30;;;;;;;4.91;100.00;100018.16;4455300;32;20447;-76
2022/05/18 05:03:04;;;;;;;0.98;0.65;;;;;;;4.59;100.00;99961.56;4467732;32;20033;-77
2022/05/18 05:05:38;;;;;;;4.57;1.27;;;;;;;4.90;100.00;100021.88;4461369;32;20447;-80
2022/05/18 05:08:04;;;;;;;0.85;0.77;;;;;;;5.03;100.00;100022.00;4462537;32;20049;-77
2022/05/18 05:10:31;;;;;;;4.43;1.15;;;;;;;4.99;100.00;99990.53;4458262;32;20071;-78
2022/05/18 05:12:57;;;;;;;1.98;0.93;;;;;;;5.18;100.00;100015.78;4455353;32;20181;-77
2022/05/18 05:15:24;;;;;;;7.15;1.10;;;;;;;5.20;100.00;100014.59;4472062;32;20085;-80
2022/05/18 05:17:50;;;;;;;2.67;1.02;;;;;;;5.30;100.00;100021.44;4467120;32;20063;-77
2022/05/18 05:20:17;;;;;;;5.07;1.10;;;;;;;5.31;100.00;100026.56;4466211;32;20100;-76
2022/05/18 05:22:44;;;;;;;1.50;1.40;;;;;;;5.40;100.00;100020.09;4462853;32;20441;-78
2022/05/18 05:25:10;;;;;;;3.42;1.55;;;;;;;5.36;100.00;100018.84;4472657;32;20041;-77
2022/05/18 05:27:37;;;;;;;1.87;1.35;;;;;;;5.46;100.00;100034.53;4448187;32;20373;-78
2022/05/18 05:30:05;;;;;;;6.12;0.90;;;;;;;5.55;100.00;100032.56;4457959;32;20048;-78
2022/05/18 05:32:32;;;;;;;1.48;1.05;;;;;;;5.59;100.00;100044.53;4480494;32;20033;-76
2022/05/18 05:34:59;;;;;;;1.87;1.00;;;;;;;5.68;100.00;100043.38;4480928;32;20045;-76
2022/05/18 05:37:26;;;;;;;1.17;1.10;;;;;;;5.69;100.00;100037.00;4477552;32;20488;-78
2022/05/18 05:39:53;;;;;;;5.45;1.25;;;;;;;5.82;100.00;100055.81;4469906;32;20872;-77
2022/05/18 05:42:19;;;;;;;3.30;1.65;;;;;;;5.93;100.00;100050.94;4472214;32;20049;-77
2022/05/18 05:44:46;;;;;;;0.80;0.80;;;;;;;5.97;100.00;100052.25;4468010;32;20089;-77
2022/05/18 05:47:12;;;;;;;1.30;1.10;;;;;;;6.00;100.00;100059.91;4464892;32;20462;-76
2022/05/18 05:49:39;;;;;;;1.10;1.10;;;;;;;5.88;100.00;100022.12;4463866;32;20059;-77
2022/05/18 05:52:07;;;;;;;1.50;1.40;;;;;;;6.17;100.00;100058.59;4463208;32;20056;-77
2022/05/18 05:54:34;;;;;;;5.68;1.25;;;;;;;6.32;100.00;100065.66;4448335;32;20038;-78
2022/05/18 05:57:04;;;;;;;7.60;1.45;;;;;;;6.35;100.00;100071.44;4446279;32;20093;-76
2022/05/18 05:59:33;;;;;;;3.37;0.98;;;;;;;6.46;100.00;100075.41;4430297;32;20038;-77
2022/05/18 06:02:06;;;;;;;3.90;1.20;;;;;;;6.52;100.00;100077.28;4448643;32;20374;-81
2022/05/18 06:04:35;;;;;;;2.17;0.88;;;;;;;6.61;100.00;100079.81;4451143;32;20097;-78
2022/05/18 06:07:02;;;;;;;1.17;1.08;;;;;;;6.69;100.00;100075.13;4451084;32;20068;-76
2022/05/18 06:09:29;;;;;;;4.60;1.12;;;;;;;6.53;100.00;100044.16;4449584;32;20169;-81
2022/05/18 06:11:56;;;;;;;5.75;1.35;;;;;;;6.81;100.00;100080.75;4433551;32;20037;-83
2022/05/18 06:14:22;;;;;;;9.68;1.20;;;;;;;6.81;100.00;100080.75;4434607;32;20018;-84
2022/05/18 06:16:48;;;;;;;8.05;1.33;;;;;;;6.93;100.00;100085.53;4449962;32;20038;-83
2022/05/18 06:19:16;;;;;;;1.30;1.20;;;;;;;6.68;100.00;100040.53;4446326;32;20038;-78
2022/05/18 06:21:43;;;;;;;2.53;0.80;;;;;;;6.82;100.00;100049.44;4449358;32;20383;-81
2022/05/18 06:24:09;;;;;;;2.05;1.20;;;;;;;7.20;100.00;100084.59;4449278;32;20038;-79
2022/05/18 06:26:36;;;;;;;2.72;1.12;;;;;;;7.06;100.00;100042.72;4449113;32;20076;-79
2022/05/18 06:29:04;;;;;;;4.03;0.80;;;;;;;7.41;100.00;100090.81;4453934;32;20046;-78
2022/05/18 06:31:30;;;;;;;4.37;1.00;;;;;;;7.52;100.00;100090.22;4455325;32;20038;-79
2022/05/18 06:33:58;;;;;;;10.07;1.77;;;;;;;7.57;100.00;100101.16;4450798;32;20089;-77
2022/05/18 06:36:24;;;;;;;3.22;1.02;;;;;;;7.40;100.00;100062.38;4450942;32;20019;-80
2022/05/18 06:38:51;;;;;;;2.58;0.93;;;;;;;7.68;100.00;100096.25;4465019;32;20465;-81
2022/05/18 06:41:24;;;;;;;5.03;1.25;;;;;;;7.55;100.00;100068.38;4462541;32;20041;-79
2022/05/18 06:43:56;;;;;;;1.90;0.90;;;;;;;7.78;100.00;100102.00;4464674;32;20777;-82
2022/05/18 06:46:26;;;;;;;1.27;0.82;;;;;;;7.62;100.00;100071.88;4464277;32;20034;-82
2022/05/18 06:48:53;;;;;;;1.15;1.08;;;;;;;7.95;100.00;100116.66;4465647;32;20025;-84
2022/05/18 06:51:25;;;;;;;7.18;1.75;;;;;;;8.02;100.00;100110.47;4466736;32;20029;-82
2022/05/18 06:53:55;;;;;;;1.37;1.02;;;;;;;8.10;100.00;100115.63;4453771;32;20053;-84
2022/05/18 06:56:25;;;;;;;3.50;0.70;;;;;;;8.14;100.00;100116.88;4466826;32;20075;-79
2022/05/18 06:58:52;;;;;;;2.50;1.65;;;;;;;7.92;100.00;100092.94;4451968;32;20305;-83
2022/05/18 07:01:20;;;;;;;0.90;0.88;;;;;;;8.09;100.00;100088.00;4463154;32;20036;-75
2022/05/18 07:03:46;;;;;;;4.25;0.82;;;;;;;8.32;100.00;100125.09;4462756;32;20220;-82
2022/05/18 07:06:16;;;;;;;3.03;1.10;;;;;;;8.20;100.00;100094.59;4462677;32;20390;-78
2022/05/18 07:08:42;;;;;;;2.08;0.80;;;;;;;8.40;100.00;100116.03;4447790;32;20033;-82
2022/05/18 07:11:08;;;;;;;4.12;1.15;;;;;;;8.28;100.00;100091.69;4463618;32;20063;-80
2022/05/18 07:13:36;;;;;;;4.87;2.20;;;;;;;8.60;97.67;100132.13;4447658;32;20034;-79
2022/05/18 07:16:03;;;;;;;11.02;1.00;;;;;;;8.86;99.34;100127.72;4469500;32;20308;-80
2022/05/18 07:18:31;;;;;;;1.92;0.80;;;;;;;8.93;98.97;100123.16;4471720;32;20038;-80
2022/05/18 07:20:59;;;;;;;3.33;0.80;;;;;;;8.94;94.10;100130.19;4464043;32;20033;-83
2022/05/18 07:23:26;;;;;;;3.92;0.88;;;;;;;9.03;90.65;100133.44;4446037;32;20063;-84
2022/05/18 07:25:55;;;;;;;2.40;0.90;;;;;;;9.00;94.36;100132.03;4462817;32;20041;-83
2022/05/18 07:28:22;;;;;;;0.80;0.80;;;;;;;9.07;90.81;100137.38;4449833;32;20042;-82
2022/05/18 07:30:50;;;;;;;5.37;0.90;;;;;;;9.08;91.65;100134.47;4463445;32;20055;-81
2022/05/18 07:33:17;;;;;;;5.28;0.77;;;;;;;9.11;89.08;100137.75;4461995;32;20301;-83
2022/05/18 07:35:44;;;;;;;0.75;0.75;;;;;;;8.86;91.35;100098.19;4449708;32;20049;-84
2022/05/18 07:38:11;;;;;;;1.00;0.65;;;;;;;9.09;91.90;100136.13;4464227;32;20390;-83
2022/05/18 07:40:37;;;;;;;4.35;1.00;;;;;;;9.13;89.57;100146.44;4472425;32;20478;-85
2022/05/18 07:43:04;;;;;;;1.95;1.17;;;;;;;9.13;87.33;100141.87;4464373;32;20458;-81
2022/05/18 07:45:51;;;;;;;7.32;0.90;;;;;;;9.02;86.72;100118.37;4462118;32;20041;-84
2022/05/18 07:48:19;;;;;;;5.03;1.37;;;;;;;8.48;86.25;100021.06;4465522;32;20037;-85
2022/05/18 07:50:45;;;;;;;1.10;0.85;;;;;;;9.31;87.54;100143.88;4465580;32;20131;-75
2022/05/18 07:53:12;;;;;;;3.12;0.90;;;;;;;9.33;87.88;100147.16;4467227;32;20071;-84
2022/05/18 07:55:39;;;;;;;3.25;1.00;;;;;;;8.96;87.90;100082.44;4467435;32;20055;-83
2022/05/18 07:58:08;;;;;;;4.62;1.10;;;;;;;9.36;92.95;100141.34;4469565;32;20157;-82
2022/05/18 08:00:35;;;;;;;2.62;0.85;;;;;;;9.48;82.46;100146.06;4469897;32;20049;-77
2022/05/18 08:03:02;;;;;;;0.98;0.82;;;;;;;9.34;76.91;100110.38;4471063;32;20714;-81
2022/05/18 08:05:30;;;;;;;6.22;0.70;;;;;;;9.45;79.18;100105.13;4470212;32;20405;-85
2022/05/18 08:07:57;;;;;;;1.25;0.70;;;;;;;9.73;74.57;100106.62;4467073;32;20098;-82
2022/05/18 08:18:28;;;;;;;3.40;0.73;;;;;;;10.22;73.84;100141.81;4471093;32;20427;-84
2022/05/18 08:20:54;;;;;;;6.78;0.65;;;;;;;10.26;67.15;100136.81;4474105;32;20063;-85
2022/05/18 08:23:21;;;;;;;3.40;0.80;;;;;;;9.92;66.47;100077.09;4478892;32;20078;-84
2022/05/18 08:25:47;;;;;;;2.17;1.50;;;;;;;10.16;68.55;100103.19;4461873;32;20053;-82
2022/05/18 08:28:15;;;;;;;0.80;0.80;;;;;;;10.44;68.69;100142.28;4466145;32;20067;-82
2022/05/18 08:30:43;;;;;;;0.80;0.70;;;;;;;10.53;63.75;100140.97;4468245;32;20053;-84
2022/05/18 08:33:09;;;;;;;2.00;0.70;;;;;;;10.58;60.64;100142.16;4470754;32;20411;-82
2022/05/18 08:35:36;;;;;;;3.75;2.60;;;;;;;10.67;60.30;100146.22;4467779;32;20038;-83
2022/05/18 08:38:03;;;;;;;2.70;1.00;;;;;;;10.57;59.65;100108.22;4472399;32;20037;-76
2022/05/18 08:40:30;;;;;;;4.25;0.77;;;;;;;10.77;58.03;100130.38;4471479;32;20053;-80
2022/05/18 08:42:58;;;;;;;2.87;1.08;;;;;;;10.83;58.62;100142.09;4474319;32;20049;-83
2022/05/18 08:45:35;;;;;;;0.70;0.70;;;;;;;10.94;56.06;100141.34;4474828;32;20111;-82
2022/05/18 08:48:19;;;;;;;5.12;0.70;;;;;;;10.86;56.55;100107.44;4469375;32;20045;-78
2022/05/18 08:50:48;;;;;;;1.00;0.95;;;;;;;11.14;54.43;100135.75;4471156;32;20059;-85
2022/05/18 08:53:38;;;;;;;2.83;1.80;;;;;;;11.14;50.23;100148.41;4469400;32;20041;-76
2022/05/18 08:56:18;;;;;;;1.87;0.73;;;;;;;11.19;48.23;100143.97;4465374;32;20067;-75
2022/05/18 08:58:48;;;;;;;1.25;0.80;;;;;;;10.99;46.42;100111.03;4453864;32;20075;-75
2022/05/18 09:01:41;;;;;;;1.10;1.00;;;;;;;11.18;46.38;100136.09;4468783;32;20033;-75
2022/05/18 09:04:30;;;;;;;0.90;0.73;;;;;;;11.24;46.87;100141.41;4468518;32;20375;-75
2022/05/18 09:07:11;;;;;;;3.03;0.85;;;;;;;11.30;45.98;100128.09;4469020;32;20453;-75
2022/05/18 09:10:12;;;;;;;1.48;0.90;;;;;;;11.37;45.02;100128.81;4471229;32;20106;-75
2022/05/18 09:12:45;;;;;;;3.97;1.35;;;;;;;11.24;42.44;100113.62;4454559;32;20157;-75
2022/05/18 09:15:15;;;;;;;1.15;0.85;;;;;;;11.30;41.32;100106.53;4450606;32;20060;-75
2022/05/18 09:18:26;;;;;;;1.10;0.80;;;;;;;11.53;41.63;100127.34;4446007;32;20465;-77
2022/05/18 09:21:16;;;;;;;4.60;1.08;;;;;;;11.59;40.68;100137.22;4382713;32;20043;-74
2022/05/18 09:23:50;;;;;;;4.68;1.20;;;;;;;11.68;42.88;100145.81;4371131;32;20081;-74
2022/05/18 09:26:56;;;;;;;4.07;0.98;;;;;;;11.68;43.53;100135.84;4383683;32;20071;-74
2022/05/18 09:30:02;;;;;;;4.07;0.95;;;;;;;11.60;43.52;100107.31;4384016;32;20039;-74
2022/05/18 09:33:11;;;;;;;0.70;0.70;;;;;;;11.93;40.74;100133.00;4382512;32;20172;-74
2022/05/18 09:35:45;;;;;;;1.80;0.95;;;;;;;12.05;41.06;100118.72;4393629;32;20093;-74
2022/05/18 09:38:20;;;;;;;4.18;2.05;;;;;;;12.08;39.53;100118.25;4398972;32;20038;-77
2022/05/18 09:40:48;;;;;;;2.53;1.00;;;;;;;12.11;40.75;100096.16;4399022;32;20078;-76
2022/05/18 09:43:28;;;;;;;1.27;1.10;;;;;;;12.40;38.96;100124.16;4398288;32;20439;-78
2022/05/18 09:45:56;;;;;;;1.35;0.90;;;;;;;12.25;38.36;100086.78;4399238;32;20432;-77
2022/05/18 09:49:00;;;;;;;2.25;0.80;;;;;;;12.67;39.54;100116.38;4401628;32;20065;-77
2022/05/18 09:51:26;;;;;;;1.60;0.77;;;;;;;12.78;38.10;100095.81;4424569;32;20029;-76
2022/05/18 09:53:53;;;;;;;0.75;0.75;;;;;;;13.03;37.71;100114.41;4451344;32;20419;-76
2022/05/18 09:56:26;;;;;;;4.47;1.40;;;;;;;13.04;38.52;100099.84;4464044;32;20067;-76
2022/05/18 09:58:59;;;;;;;0.90;0.90;;;;;;;13.08;38.41;100084.78;4464813;32;20359;-74
2022/05/18 10:10:09;;;;;;;;;;;;;;;13.02;38.78;100085.75;4447963;32;20427;-75
2022/05/18 10:12:53;;;;;;;0.90;0.90;;;;;;;13.41;37.93;100115.72;4448901;32;19978;-75
2022/05/18 10:15:49;;;;;;;1.08;1.02;;;;;;;13.59;38.30;100122.00;4433001;32;20030;-76
2022/05/18 10:18:27;;;;;;;8.50;1.20;;;;;;;13.59;36.90;100116.59;4448535;32;20080;-75
2022/05/18 10:21:12;;;;;;;4.65;1.20;;;;;;;13.58;36.95;100117.66;4434006;32;20063;-77
2022/05/18 10:23:46;;;;;;;9.43;1.15;;;;;;;13.93;38.52;100111.25;4436103;32;20029;-75
2022/05/18 10:26:26;;;;;;;2.83;0.93;;;;;;;13.88;37.51;100081.34;4449282;32;20508;-76
2022/05/18 10:29:08;;;;;;;4.15;1.10;;;;;;;14.00;35.80;100117.28;4449169;32;20045;-75
2022/05/18 10:31:46;;;;;;;0.88;0.88;;;;;;;13.92;36.14;100077.09;4449652;32;20411;-76
2022/05/18 10:34:25;;;;;;;2.65;0.90;;;;;;;14.30;36.03;100108.03;4448435;32;20931;-76
2022/05/18 10:36:55;;;;;;;3.72;0.80;;;;;;;14.47;36.47;100100.69;4435375;32;20045;-76
2022/05/18 10:39:39;;;;;;;3.45;1.40;;;;;;;14.63;36.95;100109.03;4448219;32;20398;-74
2022/05/18 10:42:12;;;;;;;2.85;1.00;;;;;;;15.04;37.89;100109.59;4434947;32;20063;-76
2022/05/18 10:44:39;;;;;;;9.07;1.87;;;;;;;15.36;37.95;100106.13;4449754;32;20067;-77
2022/05/18 10:47:17;;;;;;;5.60;1.00;;;;;;;15.54;33.56;100108.50;4449346;32;20473;-75
2022/05/18 10:49:45;;;;;;;4.55;0.90;;;;;;;15.58;32.50;100106.91;4447076;32;20064;-75
2022/05/18 10:52:18;;;;;;;5.78;1.10;;;;;;;15.60;34.04;100080.34;4435035;32;20052;-77
2022/05/18 10:55:01;;;;;;;5.07;1.08;;;;;;;15.78;35.07;100100.09;4462897;32;20053;-74
2022/05/18 10:57:33;;;;;;;2.35;1.40;;;;;;;15.92;33.36;100071.41;4463499;32;20584;-75
2022/05/18 11:00:02;;;;;;;;;;;;;;;16.37;33.08;100103.78;4465077;32;20033;-75
2022/05/18 11:02:40;;;;;;;1.02;0.93;;;;;;;17.16;33.22;100099.31;4464410;32;19947;-75
2022/05/18 11:05:22;;;;;;;7.57;1.23;;;;;;;17.22;30.61;100071.03;4450057;32;20496;-76
2022/05/18 11:07:49;;;;;;;8.65;1.10;;;;;;;17.59;31.25;100102.66;4464228;32;20059;-76
2022/05/18 11:10:16;;;;;;;11.43;1.12;;;;;;;17.75;30.88;100079.81;4462961;32;20063;-77
2022/05/18 11:13:04;;;;;;;11.25;1.48;;;;;;;17.64;31.87;100067.28;4461931;32;20037;-76
2022/05/18 11:15:58;;;;;;;4.12;1.23;;;;;;;18.20;30.83;100069.19;4464500;32;20037;-78
2022/05/18 11:18:44;;;;;;;11.90;1.30;;;;;;;18.96;31.03;100093.81;4464725;32;20070;-76
2022/05/18 11:21:23;;;;;;;7.72;0.95;;;;;;;19.47;31.07;100095.47;4464522;32;20400;-76
2022/05/18 11:23:49;;;;;;;11.45;1.73;;;;;;;19.93;31.04;100093.25;4463033;32;20037;-77
2022/05/18 11:26:34;;;;;;;12.27;1.02;;;;;;;20.13;31.17;100069.56;4472006;32;20045;-75
2022/05/18 11:29:13;;;;;;;9.23;1.37;;;;;;;20.18;29.00;100094.09;4472690;32;20054;-76
2022/05/18 11:32:05;;;;;;;17.77;1.23;;;;;;;20.35;28.56;100090.12;4472559;32;20693;-75
2022/05/18 11:34:50;;;;;;;19.05;1.85;;;;;;;19.29;29.65;100083.28;4471608;32;20088;-76
2022/05/18 11:37:38;;;;;;;5.53;1.27;;;;;;;19.18;30.49;100083.34;4448595;32;20045;-75
2022/05/18 11:40:37;;;;;;;3.35;1.30;;;;;;;18.72;30.16;100064.41;4448409;32;20030;-83
2022/05/18 11:43:28;;;;;;;4.53;1.52;;;;;;;18.71;31.68;100084.59;4451242;32;20067;-74
2022/05/18 11:46:20;;;;;;;4.32;1.25;;;;;;;18.87;30.23;100088.13;4449839;32;20041;-75
2022/05/18 11:49:03;;;;;;;0.98;0.90;;;;;;;19.60;29.92;100079.25;4435099;32;20037;-82
2022/05/18 11:52:00;;;;;;;5.15;1.25;;;;;;;19.96;29.34;100070.00;4463749;32;20076;-75
2022/05/18 11:54:35;;;;;;;4.47;1.02;;;;;;;19.55;28.89;100078.47;4430188;32;20042;-76
2022/05/18 11:57:35;;;;;;;7.47;1.33;;;;;;;19.08;29.13;100039.72;4463192;32;20071;-75
2022/05/18 12:00:28;;;;;;;7.50;1.00;;;;;;;19.36;29.54;100062.75;4461313;32;20060;-75
2022/05/18 12:03:13;;;;;;;5.80;1.10;;;;;;;18.96;29.22;100077.47;4449176;32;20113;-76
2022/05/18 12:05:50;;;;;;;1.62;1.20;;;;;;;18.75;29.81;100080.22;4462270;32;20085;-76
2022/05/18 12:08:39;;;;;;;1.48;1.02;;;;;;;18.64;29.96;100043.19;4465494;32;20416;-76
2022/05/18 12:11:25;;;;;;;13.65;2.47;;;;;;;19.80;29.44;100072.03;4472943;32;20049;-76